Jrs Merkur — V2FD8 — position and weather

sailwx.info

Track history (hours):
 
Tides and Currents Weather Stations Pressure Air Temp Water Temp Dewpoint Dewpoint Depression Visibility Wind Speed Wind Dir Waves Ship Positions

Jrs Merkur

Last reported at 2016-Feb-07 10:10 UTC. Time now 2016-Feb-07 10:45 UTC.
Position N 54°33' E 010°30'.

Length 107 m; draft 8.4 m.

Type: Cargo ship. MMSI: 305644000.

Date/timePositionNaut miles runAvg speedWind from/ knotsBaromVisibWave heightAir tempDewpointWater temp
2016-Feb-07 10:10N 54°33' E 010°30'610.6
2016-Feb-07 09:34N 54°35' E 010°40'1111.1
2016-Feb-07 08:34N 54°36' E 010°59'1111.5
2016-Feb-07 07:34N 54°34' E 011°19'1211.9
2016-Feb-07 06:34N 54°29' E 011°38'1211.7
2016-Feb-07 05:34N 54°27' E 011°57'10 9.8
2016-Feb-07 04:33N 54°32' E 012°12'1110.7
2016-Feb-07 03:33N 54°40' E 012°23'1211.6
2016-Feb-07 02:33N 54°46' E 012°40'1211.6
2016-Feb-07 01:32N 54°51' E 012°59'1211.4
2016-Feb-07 00:28N 54°55' E 013°19'1410.7
2016-Feb-06 23:11N 54°59' E 013°41'710.8
2016-Feb-06 22:33N 55°02' E 013°52'1110.6
2016-Feb-06 21:34N 55°07' E 014°09'1110.7
2016-Feb-06 20:34N 55°15' E 014°21'1110.8
2016-Feb-06 19:33N 55°24' E 014°33'1010.5
2016-Feb-06 18:33N 55°30' E 014°47'1110.9
2016-Feb-06 17:33N 55°36' E 015°04'10710.2
2016-Feb-06 07:03N 56°54' E 017°16'610.5
2016-Feb-06 06:30N 56°59' E 017°20'1010.3
2016-Feb-06 05:33N 57°08' E 017°26'1010.3
2016-Feb-06 04:33N 57°18' E 017°33'1110.5
2016-Feb-06 03:32N 57°28' E 017°41'  
2016-Jan-31 15:32N 57°12' E 017°38'11910.5
2016-Jan-31 04:14N 55°38' E 015°25'811.8
2016-Jan-31 03:33N 55°34' E 015°13'1211.9
2016-Jan-31 02:33N 55°28' E 014°55'1212.0
2016-Jan-31 01:33N 55°22' E 014°37'1211.8
2016-Jan-31 00:33N 55°13' E 014°24'1211.7
2016-Jan-30 23:34N 55°04' E 014°11'1111.3
2016-Jan-30 22:33N 54°59' E 013°53'3511.7
2016-Jan-30 19:32N 54°47' E 012°56'1211.9
2016-Jan-30 18:33N 54°41' E 012°38'1412.3
2016-Jan-30 17:25N 54°32' E 012°19'1011.6
2016-Jan-30 16:33N 54°25' E 012°08'1212.4
2016-Jan-30 15:33N 54°25' E 011°47'1312.8
2016-Jan-30 14:33N 54°30' E 011°27'1312.6
2016-Jan-30 13:33N 54°35' E 011°07'1212.5
2016-Jan-30 12:34N 54°34' E 010°45'1211.3
2016-Jan-30 11:32N 54°31' E 010°26'1010.5
2016-Jan-30 10:33N 54°24' E 010°12'3 3.3
2016-Jan-30 09:33N 54°22' E 010°08'3 2.8
2016-Jan-30 08:33N 54°22' E 010°04'7 7.0
2016-Jan-30 07:33N 54°22' E 009°52'7 7.5
2016-Jan-30 06:34N 54°18' E 009°41'22 7.2
2016-Jan-30 03:29N 54°00' E 009°18'7 7.8
2016-Jan-30 02:33N 53°54' E 009°10'2 1.6
2016-Jan-30 01:33N 53°53' E 009°08'9 8.6
2016-Jan-30 00:34N 53°51' E 008°54'1111.0
2016-Jan-29 23:33N 53°57' E 008°39'1212.3
2016-Jan-29 22:33N 53°60' E 008°18'1312.5
2016-Jan-29 21:33N 53°58' E 007°57'7 7.0
2016-Jan-29 20:33N 53°53' E 007°49'1111.2
2016-Jan-29 19:33N 53°49' E 008°07'1313.4
2016-Jan-29 18:33N 53°40' E 008°23'1110.8
2016-Jan-29 17:33N 53°30' E 008°31'10 9.6
2016-Jan-29 16:30N 53°20' E 008°30'0 0.0
2016-Jan-29 15:30N 53°20' E 008°30'0 0.0
2016-Jan-29 14:30N 53°20' E 008°30'0 0.0
2016-Jan-29 13:30N 53°20' E 008°30'0 0.0
2016-Jan-29 12:33N 53°20' E 008°30'0 0.0
2016-Jan-29 11:30N 53°20' E 008°30'0 0.0
2016-Jan-29 10:33N 53°20' E 008°30'0 0.0
2016-Jan-29 09:33N 53°20' E 008°30'0 0.0
2016-Jan-29 08:30N 53°20' E 008°30'0 0.0
2016-Jan-29 07:30N 53°20' E 008°30'0 0.0
2016-Jan-29 06:33N 53°20' E 008°30'0 0.0
2016-Jan-29 05:15N 53°20' E 008°30'0 0.0
2016-Jan-29 04:33N 53°20' E 008°30'0 0.0
2016-Jan-29 03:33N 53°20' E 008°30'0 0.0
2016-Jan-29 02:33N 53°20' E 008°30'0 0.0
2016-Jan-29 01:33N 53°20' E 008°30'0 0.0
2016-Jan-29 00:30N 53°20' E 008°30'0 0.0
2016-Jan-28 23:33N 53°20' E 008°30'0 0.0
2016-Jan-28 22:30N 53°20' E 008°30'0 0.0
2016-Jan-28 21:33N 53°20' E 008°30'1 1.0
2016-Jan-28 20:33N 53°21' E 008°30'7 7.4
2016-Jan-28 19:33N 53°29' E 008°30'6 6.4
2016-Jan-28 18:33N 53°35' E 008°32'9 8.7
2016-Jan-28 17:33N 53°41' E 008°21'9 9.1
2016-Jan-28 16:33N 53°47' E 008°09'8 8.4
2016-Jan-28 15:33N 53°51' E 007°57'10 9.6
2016-Jan-28 14:33N 53°53' E 007°41'1813.5
2016-Jan-28 13:13N 53°51' E 007°11'0 0.7
2016-Jan-28 12:33N 53°51' E 007°10'1110.7
2016-Jan-28 11:33N 53°49' E 006°52'1111.0
2016-Jan-28 10:33N 53°47' E 006°34'  
Track history (hours):
 
Tides and Currents Weather Stations Pressure Air Temp Water Temp Dewpoint Dewpoint Depression Visibility Wind Speed Wind Dir Waves Ship Positions

Jrs Merkur

Last reported at 2016-Feb-07 10:10 UTC. Time now 2016-Feb-07 10:45 UTC.
Position N 54°33' E 010°30'.

Length 107 m; draft 8.4 m.

Type: Cargo ship. MMSI: 305644000.

Date/timePositionNaut miles runAvg speedWind from/ knotsBaromVisibWave heightAir tempDewpointWater temp
2016-Feb-07 10:10N 54°33' E 010°30'610.6
2016-Feb-07 09:34N 54°35' E 010°40'1111.1
2016-Feb-07 08:34N 54°36' E 010°59'1111.5
2016-Feb-07 07:34N 54°34' E 011°19'1211.9
2016-Feb-07 06:34N 54°29' E 011°38'1211.7
2016-Feb-07 05:34N 54°27' E 011°57'10 9.8
2016-Feb-07 04:33N 54°32' E 012°12'1110.7
2016-Feb-07 03:33N 54°40' E 012°23'1211.6
2016-Feb-07 02:33N 54°46' E 012°40'1211.6
2016-Feb-07 01:32N 54°51' E 012°59'1211.4
2016-Feb-07 00:28N 54°55' E 013°19'1410.7
2016-Feb-06 23:11N 54°59' E 013°41'710.8
2016-Feb-06 22:33N 55°02' E 013°52'1110.6
2016-Feb-06 21:34N 55°07' E 014°09'1110.7
2016-Feb-06 20:34N 55°15' E 014°21'1110.8
2016-Feb-06 19:33N 55°24' E 014°33'1010.5
2016-Feb-06 18:33N 55°30' E 014°47'1110.9
2016-Feb-06 17:33N 55°36' E 015°04'10710.2
2016-Feb-06 07:03N 56°54' E 017°16'610.5
2016-Feb-06 06:30N 56°59' E 017°20'1010.3
2016-Feb-06 05:33N 57°08' E 017°26'1010.3
2016-Feb-06 04:33N 57°18' E 017°33'1110.5
2016-Feb-06 03:32N 57°28' E 017°41'  
2016-Jan-31 15:32N 57°12' E 017°38'11910.5
2016-Jan-31 04:14N 55°38' E 015°25'811.8
2016-Jan-31 03:33N 55°34' E 015°13'1211.9
2016-Jan-31 02:33N 55°28' E 014°55'1212.0
2016-Jan-31 01:33N 55°22' E 014°37'1211.8
2016-Jan-31 00:33N 55°13' E 014°24'1211.7
2016-Jan-30 23:34N 55°04' E 014°11'1111.3
2016-Jan-30 22:33N 54°59' E 013°53'3511.7
2016-Jan-30 19:32N 54°47' E 012°56'1211.9
2016-Jan-30 18:33N 54°41' E 012°38'1412.3
2016-Jan-30 17:25N 54°32' E 012°19'1011.6
2016-Jan-30 16:33N 54°25' E 012°08'1212.4
2016-Jan-30 15:33N 54°25' E 011°47'1312.8
2016-Jan-30 14:33N 54°30' E 011°27'1312.6
2016-Jan-30 13:33N 54°35' E 011°07'1212.5
2016-Jan-30 12:34N 54°34' E 010°45'1211.3
2016-Jan-30 11:32N 54°31' E 010°26'1010.5
2016-Jan-30 10:33N 54°24' E 010°12'3 3.3
2016-Jan-30 09:33N 54°22' E 010°08'3 2.8
2016-Jan-30 08:33N 54°22' E 010°04'7 7.0
2016-Jan-30 07:33N 54°22' E 009°52'7 7.5
2016-Jan-30 06:34N 54°18' E 009°41'22 7.2
2016-Jan-30 03:29N 54°00' E 009°18'7 7.8
2016-Jan-30 02:33N 53°54' E 009°10'2 1.6
2016-Jan-30 01:33N 53°53' E 009°08'9 8.6
2016-Jan-30 00:34N 53°51' E 008°54'1111.0
2016-Jan-29 23:33N 53°57' E 008°39'1212.3
2016-Jan-29 22:33N 53°60' E 008°18'1312.5
2016-Jan-29 21:33N 53°58' E 007°57'7 7.0
2016-Jan-29 20:33N 53°53' E 007°49'1111.2
2016-Jan-29 19:33N 53°49' E 008°07'1313.4
2016-Jan-29 18:33N 53°40' E 008°23'1110.8
2016-Jan-29 17:33N 53°30' E 008°31'10 9.6
2016-Jan-29 16:30N 53°20' E 008°30'0 0.0
2016-Jan-29 15:30N 53°20' E 008°30'0 0.0
2016-Jan-29 14:30N 53°20' E 008°30'0 0.0
2016-Jan-29 13:30N 53°20' E 008°30'0 0.0
2016-Jan-29 12:33N 53°20' E 008°30'0 0.0
2016-Jan-29 11:30N 53°20' E 008°30'0 0.0
2016-Jan-29 10:33N 53°20' E 008°30'0 0.0
2016-Jan-29 09:33N 53°20' E 008°30'0 0.0
2016-Jan-29 08:30N 53°20' E 008°30'0 0.0
2016-Jan-29 07:30N 53°20' E 008°30'0 0.0
2016-Jan-29 06:33N 53°20' E 008°30'0 0.0
2016-Jan-29 05:15N 53°20' E 008°30'0 0.0
2016-Jan-29 04:33N 53°20' E 008°30'0 0.0
2016-Jan-29 03:33N 53°20' E 008°30'0 0.0
2016-Jan-29 02:33N 53°20' E 008°30'0 0.0
2016-Jan-29 01:33N 53°20' E 008°30'0 0.0
2016-Jan-29 00:30N 53°20' E 008°30'0 0.0
2016-Jan-28 23:33N 53°20' E 008°30'0 0.0
2016-Jan-28 22:30N 53°20' E 008°30'0 0.0
2016-Jan-28 21:33N 53°20' E 008°30'1 1.0
2016-Jan-28 20:33N 53°21' E 008°30'7 7.4
2016-Jan-28 19:33N 53°29' E 008°30'6 6.4
2016-Jan-28 18:33N 53°35' E 008°32'9 8.7
2016-Jan-28 17:33N 53°41' E 008°21'9 9.1
2016-Jan-28 16:33N 53°47' E 008°09'8 8.4
2016-Jan-28 15:33N 53°51' E 007°57'10 9.6
2016-Jan-28 14:33N 53°53' E 007°41'1813.5
2016-Jan-28 13:13N 53°51' E 007°11'0 0.7
2016-Jan-28 12:33N 53°51' E 007°10'1110.7
2016-Jan-28 11:33N 53°49' E 006°52'1111.0
2016-Jan-28 10:33N 53°47' E 006°34'  

Dump ship's entire track history